Time;durP1;ratioP1;P1;durP2;ratioP2;P2;SDS_P1;SDS_P2;PMS_P1;PMS_P2;Temp;Humidity;BMP_temperature;BMP_pressure;BME280_temperature;BME280_humidity;BME280_pressure;Samples;Min_cycle;Max_cycle;Signal;HPM_P1;HPM_P2
2021/04/22 00:02:22;;;;;;;24.70;5.20;;;6.20;67.80;;;;;;5055760;28;20180;-84
2021/04/22 00:04:48;;;;;;;24.90;5.30;;;6.30;67.90;;;;;;5055228;28;20177;-84
2021/04/22 00:07:17;;;;;;;24.83;4.90;;;6.30;67.90;;;;;;5055409;28;20200;-84
2021/04/22 00:09:42;;;;;;;22.47;4.57;;;6.30;67.30;;;;;;5055046;28;20230;-84
2021/04/22 00:12:09;;;;;;;21.37;5.00;;;6.30;67.10;;;;;;5055224;28;20665;-83
2021/04/22 00:14:34;;;;;;;22.60;5.50;;;6.30;66.80;;;;;;5055293;28;20659;-84
2021/04/22 00:17:00;;;;;;;27.50;5.93;;;6.40;66.80;;;;;;5055008;28;20162;-84
2021/04/22 00:19:26;;;;;;;22.80;5.80;;;6.30;66.50;;;;;;5054990;28;20681;-84
2021/04/22 00:21:52;;;;;;;22.57;5.67;;;6.40;66.30;;;;;;5053662;28;20168;-84
2021/04/22 00:24:17;;;;;;;27.53;5.40;;;6.30;66.60;;;;;;5055021;28;20169;-84
2021/04/22 00:26:43;;;;;;;27.90;5.10;;;6.40;66.50;;;;;;5054829;28;20226;-84
2021/04/22 00:29:08;;;;;;;20.37;4.87;;;6.40;65.60;;;;;;5054734;28;20256;-84
2021/04/22 00:31:34;;;;;;;25.17;5.57;;;6.40;65.90;;;;;;5054847;28;20172;-84
2021/04/22 00:34:00;;;;;;;20.70;5.47;;;6.40;65.60;;;;;;5054050;28;20188;-83
2021/04/22 00:36:26;;;;;;;21.27;4.57;;;6.40;65.70;;;;;;5054919;28;20197;-84
2021/04/22 00:38:51;;;;;;;25.87;4.97;;;6.40;65.30;;;;;;5054699;28;20180;-84
2021/04/22 00:41:17;;;;;;;18.70;4.20;;;6.40;64.80;;;;;;5054910;28;20197;-84
2021/04/22 00:43:43;;;;;;;24.33;5.43;;;6.40;64.80;;;;;;5055600;28;20170;-84
2021/04/22 00:46:08;;;;;;;26.70;5.13;;;6.50;64.80;;;;;;5053583;28;20177;-84
2021/04/22 00:48:34;;;;;;;16.17;4.80;;;6.40;65.00;;;;;;5054594;28;20257;-84
2021/04/22 00:51:00;;;;;;;20.27;4.53;;;6.40;65.60;;;;;;5053041;28;20203;-84
2021/04/22 00:53:25;;;;;;;23.77;5.70;;;6.40;65.30;;;;;;5054507;28;20546;-84
2021/04/22 00:55:52;;;;;;;19.93;5.07;;;6.40;64.60;;;;;;5054534;28;20227;-84
2021/04/22 00:58:18;;;;;;;22.17;4.50;;;6.40;65.10;;;;;;5054232;28;20544;-83
2021/04/22 01:00:50;;;;;;;21.97;4.43;;;6.40;64.80;;;;;;5054051;28;20215;-84
2021/04/22 01:03:16;;;;;;;17.40;5.10;;;6.40;65.90;;;;;;5054282;28;20218;-84
2021/04/22 01:05:51;;;;;;;17.10;4.10;;;6.40;67.00;;;;;;5054004;28;20205;-84
2021/04/22 01:08:16;;;;;;;15.40;4.23;;;6.30;66.40;;;;;;5052755;28;20179;-84
2021/04/22 01:10:42;;;;;;;20.83;5.27;;;6.30;65.40;;;;;;5052647;28;20195;-84
2021/04/22 01:13:08;;;;;;;21.27;4.27;;;6.30;65.20;;;;;;5054008;28;20168;-84
2021/04/22 01:15:35;;;;;;;23.23;5.13;;;6.40;65.50;;;;;;5053904;28;20200;-84
2021/04/22 01:18:02;;;;;;;25.47;4.80;;;6.40;66.00;;;;;;5054020;28;20594;-84
2021/04/22 01:20:30;;;;;;;27.93;5.20;;;6.40;66.80;;;;;;5053805;28;20217;-84
2021/04/22 01:22:57;;;;;;;22.03;5.27;;;6.40;67.20;;;;;;5054012;28;20234;-84
2021/04/22 01:25:32;;;;;;;20.57;4.67;;;6.30;67.20;;;;;;5053734;28;20229;-84
2021/04/22 01:28:00;;;;;;;21.77;5.17;;;6.30;66.90;;;;;;5053860;28;20562;-84
2021/04/22 01:30:33;;;;;;;19.83;4.53;;;6.30;67.10;;;;;;5052279;28;20678;-84
2021/04/22 01:32:59;;;;;;;23.30;5.43;;;6.30;67.30;;;;;;5052527;28;20176;-84
2021/04/22 01:35:29;;;;;;;31.97;5.87;;;6.30;67.80;;;;;;5052276;28;20294;-84
2021/04/22 01:37:56;;;;;;;25.40;4.93;;;6.30;67.20;;;;;;5052413;28;20181;-84
2021/04/22 01:40:22;;;;;;;22.67;5.13;;;6.30;67.30;;;;;;5053416;28;20219;-83
2021/04/22 01:42:48;;;;;;;25.53;4.77;;;6.30;67.40;;;;;;5053442;28;20169;-84
2021/04/22 01:45:15;;;;;;;23.37;4.67;;;6.30;67.50;;;;;;5052187;28;20553;-84
2021/04/22 01:47:41;;;;;;;24.50;4.60;;;6.30;67.40;;;;;;5052076;28;20255;-83
2021/04/22 01:50:10;;;;;;;15.27;4.10;;;6.30;66.90;;;;;;5053676;28;20243;-84
2021/04/22 01:52:36;;;;;;;32.17;4.90;;;6.30;65.50;;;;;;5053356;28;20168;-84
2021/04/22 01:55:04;;;;;;;18.57;4.90;;;6.30;65.80;;;;;;5052844;28;20201;-83
2021/04/22 01:57:30;;;;;;;19.13;4.37;;;6.30;66.10;;;;;;5052004;28;20592;-84
2021/04/22 01:59:55;;;;;;;29.07;4.40;;;6.30;67.00;;;;;;5053261;28;20200;-84
2021/04/22 02:02:21;;;;;;;19.37;5.13;;;6.30;67.80;;;;;;5053772;28;20174;-83
2021/04/22 02:04:47;;;;;;;21.77;4.30;;;6.20;67.70;;;;;;5052006;28;20174;-84
2021/04/22 02:07:13;;;;;;;25.40;4.50;;;6.20;66.60;;;;;;5053640;28;20161;-84
2021/04/22 02:09:38;;;;;;;26.07;4.40;;;6.20;66.40;;;;;;5053248;28;20189;-84
2021/04/22 02:12:05;;;;;;;19.83;4.73;;;6.20;66.20;;;;;;5053766;28;20181;-84
2021/04/22 02:14:31;;;;;;;19.67;4.80;;;6.30;67.20;;;;;;5051692;28;20638;-84
2021/04/22 02:16:56;;;;;;;21.27;4.53;;;6.20;67.50;;;;;;5053156;28;20280;-84
2021/04/22 02:19:22;;;;;;;20.37;4.20;;;6.20;68.00;;;;;;5055881;28;20192;-84
2021/04/22 02:21:48;;;;;;;18.47;4.37;;;6.20;67.80;;;;;;5057301;28;20176;-84
2021/04/22 02:24:14;;;;;;;22.67;4.43;;;6.20;67.80;;;;;;5057254;28;20180;-83
2021/04/22 02:26:39;;;;;;;17.73;5.03;;;6.20;67.90;;;;;;5057067;28;20679;-83
2021/04/22 02:29:05;;;;;;;17.33;5.00;;;6.20;67.10;;;;;;5055773;28;20306;-84
2021/04/22 02:31:31;;;;;;;23.37;4.30;;;6.30;67.20;;;;;;5057216;28;20295;-83
2021/04/22 02:33:56;;;;;;;22.60;4.53;;;6.30;67.60;;;;;;5057070;28;20174;-83
2021/04/22 02:36:22;;;;;;;19.07;4.47;;;6.30;67.80;;;;;;5055668;28;20196;-84
2021/04/22 02:38:48;;;;;;;25.97;5.23;;;6.30;68.60;;;;;;5056990;28;20647;-84
2021/04/22 02:41:14;;;;;;;23.73;4.70;;;6.30;68.60;;;;;;5055523;28;20669;-84
2021/04/22 02:43:40;;;;;;;21.47;4.57;;;6.30;68.20;;;;;;5055493;28;20176;-84
2021/04/22 02:46:06;;;;;;;22.40;4.57;;;6.30;68.70;;;;;;5055640;28;20174;-83
2021/04/22 02:48:32;;;;;;;23.50;4.80;;;6.30;68.10;;;;;;5056755;28;20176;-84
2021/04/22 02:50:58;;;;;;;19.00;4.27;;;6.30;68.10;;;;;;5055436;28;20678;-84
2021/04/22 02:53:24;;;;;;;29.00;5.10;;;6.30;68.40;;;;;;5055336;28;20213;-84
2021/04/22 02:55:51;;;;;;;20.10;4.00;;;6.30;68.70;;;;;;5055240;28;20299;-84
2021/04/22 02:58:18;;;;;;;20.37;5.00;;;6.30;68.20;;;;;;5056604;28;20198;-84
2021/04/22 03:00:45;;;;;;;24.03;4.33;;;6.30;68.10;;;;;;5055133;28;20208;-84
2021/04/22 03:03:11;;;;;;;14.43;3.03;;;6.30;68.60;;;;;;5056482;28;20169;-83
2021/04/22 03:05:37;;;;;;;24.03;4.73;;;6.30;68.60;;;;;;5055242;28;20177;-84
2021/04/22 03:08:04;;;;;;;28.97;5.00;;;6.30;68.90;;;;;;5056544;28;20180;-84
2021/04/22 03:10:31;;;;;;;19.80;4.70;;;6.40;68.90;;;;;;5056280;28;20705;-84
2021/04/22 03:12:57;;;;;;;18.80;4.80;;;6.30;69.00;;;;;;5056273;28;20247;-84
2021/04/22 03:15:23;;;;;;;12.93;3.30;;;6.30;68.80;;;;;;5056176;28;20193;-83
2021/04/22 03:17:49;;;;;;;15.53;3.53;;;6.40;68.20;;;;;;5056292;28;20180;-83
2021/04/22 03:20:16;;;;;;;23.93;4.33;;;6.30;68.40;;;;;;5056187;28;20197;-84
2021/04/22 03:22:42;;;;;;;20.90;4.10;;;6.40;68.50;;;;;;5054750;28;20641;-83
2021/04/22 03:25:11;;;;;;;20.30;4.10;;;6.40;68.30;;;;;;5056229;28;20180;-83
2021/04/22 03:27:37;;;;;;;30.97;4.77;;;6.40;68.80;;;;;;5056005;28;20191;-84
2021/04/22 03:30:06;;;;;;;15.30;4.33;;;6.40;69.00;;;;;;5056032;28;20189;-84
2021/04/22 03:32:31;;;;;;;24.87;4.00;;;6.40;68.40;;;;;;5055941;28;20690;-83
2021/04/22 03:34:57;;;;;;;20.37;4.87;;;6.50;67.80;;;;;;5055816;28;20263;-83
2021/04/22 03:37:23;;;;;;;19.80;4.70;;;6.40;68.10;;;;;;5055834;28;20305;-84
2021/04/22 03:39:48;;;;;;;18.40;4.00;;;6.40;68.30;;;;;;5055892;28;20558;-83
2021/04/22 03:42:17;;;;;;;22.37;4.50;;;6.50;67.60;;;;;;5055838;28;20234;-84
2021/04/22 03:44:44;;;;;;;16.40;3.63;;;6.50;67.50;;;;;;5055749;28;20201;-84
2021/04/22 03:47:11;;;;;;;16.33;3.70;;;6.50;66.20;;;;;;5055684;28;20195;-84
2021/04/22 03:49:38;;;;;;;18.40;3.47;;;6.50;65.00;;;;;;5054649;28;20609;-84
2021/04/22 03:52:05;;;;;;;20.30;4.20;;;6.50;64.60;;;;;;5055926;28;20179;-83
2021/04/22 03:54:31;;;;;;;21.50;3.73;;;6.50;65.00;;;;;;5055524;28;20253;-83
2021/04/22 03:56:58;;;;;;;17.33;4.00;;;6.50;65.60;;;;;;5054069;28;20650;-84
2021/04/22 03:59:23;;;;;;;17.50;3.87;;;6.50;66.10;;;;;;5053934;28;20205;-84
2021/04/22 04:01:49;;;;;;;17.53;4.10;;;6.50;66.80;;;;;;5055781;28;20644;-84
2021/04/22 04:04:15;;;;;;;23.00;4.63;;;6.50;67.20;;;;;;5054013;28;20181;-84
2021/04/22 04:06:40;;;;;;;22.37;5.20;;;6.50;68.10;;;;;;5054028;28;20195;-84
2021/04/22 04:09:06;;;;;;;25.07;4.50;;;6.50;68.40;;;;;;5054057;28;20551;-84
2021/04/22 04:11:32;;;;;;;21.07;4.20;;;6.50;69.40;;;;;;5055179;28;20252;-84
2021/04/22 04:13:57;;;;;;;21.97;4.73;;;6.50;69.60;;;;;;5053910;28;20180;-84
2021/04/22 04:16:23;;;;;;;29.67;5.00;;;6.50;70.20;;;;;;5055252;28;20669;-84
2021/04/22 04:18:49;;;;;;;18.70;4.63;;;6.50;71.00;;;;;;5055190;28;20169;-84
2021/04/22 04:21:14;;;;;;;25.27;5.20;;;6.50;70.90;;;;;;5054909;28;20184;-84
2021/04/22 04:23:40;;;;;;;20.87;4.83;;;6.50;71.00;;;;;;5054988;28;20231;-84
2021/04/22 04:26:06;;;;;;;18.50;3.90;;;6.50;70.20;;;;;;5053792;28;20229;-83
2021/04/22 04:28:31;;;;;;;22.63;4.07;;;6.50;69.40;;;;;;5054995;28;20178;-84
2021/04/22 04:30:57;;;;;;;18.27;3.70;;;6.40;67.60;;;;;;5054859;28;20558;-83
2021/04/22 04:33:23;;;;;;;18.37;3.70;;;6.40;65.10;;;;;;5054812;28;20289;-83
2021/04/22 04:35:49;;;;;;;19.80;3.43;;;6.30;66.20;;;;;;5054781;28;20196;-84
2021/04/22 04:38:14;;;;;;;23.17;3.87;;;6.30;66.30;;;;;;5053526;28;20170;-83
2021/04/22 04:40:40;;;;;;;19.77;4.20;;;6.30;66.80;;;;;;5054191;28;20192;-84
2021/04/22 04:43:05;;;;;;;26.23;4.00;;;6.30;67.60;;;;;;5054717;28;20200;-84
2021/04/22 04:45:31;;;;;;;23.00;4.67;;;6.30;68.70;;;;;;5054654;28;20180;-84
2021/04/22 04:47:57;;;;;;;25.73;4.97;;;6.30;69.50;;;;;;5054841;28;20208;-83
2021/04/22 04:50:23;;;;;;;19.47;4.47;;;6.30;70.00;;;;;;5054344;28;20284;-83
2021/04/22 04:52:49;;;;;;;19.17;4.17;;;6.30;69.80;;;;;;5053208;28;20203;-84
2021/04/22 04:55:16;;;;;;;23.83;4.47;;;6.30;69.60;;;;;;5054500;28;20209;-84
2021/04/22 04:57:42;;;;;;;26.10;5.27;;;6.30;69.50;;;;;;5053159;28;20184;-84
2021/04/22 05:00:10;;;;;;;18.70;4.30;;;6.30;69.20;;;;;;5054456;28;20628;-84
2021/04/22 05:02:36;;;;;;;15.13;4.20;;;6.30;69.20;;;;;;5052741;28;20176;-84
2021/04/22 05:05:04;;;;;;;27.73;4.83;;;6.20;69.20;;;;;;5054413;28;20166;-84
2021/04/22 05:07:29;;;;;;;24.77;4.50;;;6.20;69.80;;;;;;5054125;28;20229;-84
2021/04/22 05:09:55;;;;;;;21.47;4.43;;;6.20;70.10;;;;;;5053898;28;20192;-84
2021/04/22 05:12:21;;;;;;;16.07;4.33;;;6.20;70.20;;;;;;5054104;28;20580;-84
2021/04/22 05:14:47;;;;;;;24.73;4.20;;;6.20;69.80;;;;;;5054252;28;20172;-84
2021/04/22 05:17:12;;;;;;;20.57;4.70;;;6.20;69.60;;;;;;5054102;28;20169;-84
2021/04/22 05:19:38;;;;;;;18.17;4.10;;;6.20;69.70;;;;;;5054096;28;20641;-84
2021/04/22 05:22:04;;;;;;;17.87;3.90;;;6.20;69.70;;;;;;5052695;28;20173;-84
2021/04/22 05:24:29;;;;;;;20.27;3.97;;;6.30;69.30;;;;;;5052597;28;20220;-84
2021/04/22 05:26:55;;;;;;;18.80;4.30;;;6.30;69.40;;;;;;5052894;28;20675;-84
2021/04/22 05:29:21;;;;;;;19.43;3.83;;;6.40;69.30;;;;;;5052509;28;20203;-84
2021/04/22 05:31:46;;;;;;;20.70;3.67;;;6.40;69.60;;;;;;5053742;28;20175;-83
2021/04/22 05:34:12;;;;;;;17.23;4.43;;;6.50;69.90;;;;;;5053731;28;20564;-84
2021/04/22 05:36:38;;;;;;;16.57;4.00;;;6.50;69.80;;;;;;5053574;28;20207;-84
2021/04/22 05:39:05;;;;;;;25.83;4.30;;;6.50;70.60;;;;;;5053485;28;20169;-84
2021/04/22 05:41:30;;;;;;;25.97;5.63;;;6.60;70.80;;;;;;5052190;28;20183;-84
2021/04/22 05:43:56;;;;;;;20.10;5.30;;;6.60;70.80;;;;;;5053597;28;20562;-84
2021/04/22 05:46:21;;;;;;;19.93;4.40;;;6.60;70.70;;;;;;5052352;28;20666;-84
2021/04/22 05:48:47;;;;;;;22.43;5.60;;;6.60;71.00;;;;;;5053708;28;20181;-84
2021/04/22 05:51:13;;;;;;;26.40;5.27;;;6.70;71.00;;;;;;5053331;28;20277;-84
2021/04/22 05:53:38;;;;;;;32.47;5.60;;;6.70;71.30;;;;;;5051342;28;20179;-84
2021/04/22 05:56:04;;;;;;;25.97;6.53;;;6.70;71.40;;;;;;5051898;28;20284;-84
2021/04/22 05:58:30;;;;;;;23.60;5.20;;;6.70;71.20;;;;;;5053253;28;20185;-84
2021/04/22 06:00:55;;;;;;;24.10;5.00;;;6.80;71.10;;;;;;5053169;28;20234;-83
2021/04/22 06:03:21;;;;;;;31.73;5.23;;;6.80;71.20;;;;;;5053379;28;20592;-84
2021/04/22 06:05:47;;;;;;;21.60;4.23;;;6.80;71.00;;;;;;5053246;28;20179;-84
2021/04/22 06:08:12;;;;;;;19.70;4.07;;;6.90;70.20;;;;;;5053640;28;20228;-84
2021/04/22 06:10:38;;;;;;;15.97;4.53;;;6.90;70.00;;;;;;5054101;28;20697;-84
2021/04/22 06:13:04;;;;;;;22.83;4.73;;;7.00;69.60;;;;;;5053132;28;20174;-84
2021/04/22 06:15:30;;;;;;;23.90;5.40;;;7.00;68.10;;;;;;5053296;28;20598;-84
2021/04/22 06:17:56;;;;;;;13.13;3.50;;;7.10;66.90;;;;;;5053153;28;20248;-83
2021/04/22 06:20:23;;;;;;;17.90;4.07;;;7.00;67.60;;;;;;5053099;28;20547;-84
2021/04/22 06:22:50;;;;;;;19.23;4.70;;;7.10;67.80;;;;;;5051802;28;20204;-84
2021/04/22 06:25:18;;;;;;;16.50;3.77;;;7.10;67.40;;;;;;5051774;28;20678;-84
2021/04/22 06:27:43;;;;;;;26.07;4.37;;;7.10;65.60;;;;;;5053004;28;20174;-84
2021/04/22 06:30:10;;;;;;;22.10;4.07;;;7.10;65.80;;;;;;5052989;28;20224;-84
2021/04/22 06:32:36;;;;;;;20.97;4.60;;;7.10;65.50;;;;;;5052955;28;20568;-84
2021/04/22 06:35:03;;;;;;;22.20;4.37;;;7.10;65.50;;;;;;5053158;28;20273;-84
2021/04/22 06:37:29;;;;;;;28.37;5.77;;;7.10;65.80;;;;;;5053048;28;20308;-84
2021/04/22 06:39:55;;;;;;;25.30;4.27;;;7.10;66.40;;;;;;5053095;28;20647;-84
2021/04/22 06:42:21;;;;;;;29.07;4.73;;;7.10;66.20;;;;;;5052986;28;20593;-84
2021/04/22 06:44:46;;;;;;;27.90;5.30;;;7.20;66.40;;;;;;5051534;28;20176;-84
2021/04/22 06:47:12;;;;;;;16.00;4.27;;;7.20;66.60;;;;;;5053073;28;20185;-84
2021/04/22 06:49:39;;;;;;;23.47;3.90;;;7.20;64.00;;;;;;5051525;28;20200;-84
2021/04/22 06:52:05;;;;;;;21.60;4.20;;;7.30;64.30;;;;;;5052883;28;20545;-84
2021/04/22 06:54:30;;;;;;;19.33;4.30;;;7.30;64.40;;;;;;5051475;28;20190;-84
2021/04/22 06:56:56;;;;;;;17.37;4.17;;;7.40;64.00;;;;;;5052636;28;20217;-84
2021/04/22 06:59:22;;;;;;;20.47;4.30;;;7.40;64.50;;;;;;5051298;28;20628;-84
2021/04/22 07:01:47;;;;;;;19.63;4.57;;;7.40;63.60;;;;;;5053186;28;20182;-85
2021/04/22 07:04:13;;;;;;;14.97;3.70;;;7.50;64.50;;;;;;5054586;28;20695;-85
2021/04/22 07:06:38;;;;;;;22.60;4.43;;;7.50;64.80;;;;;;5055277;28;20182;-84
2021/04/22 07:09:04;;;;;;;17.27;4.17;;;7.40;65.20;;;;;;5056482;28;20688;-84
2021/04/22 07:11:30;;;;;;;24.40;4.50;;;7.50;65.70;;;;;;5056284;28;20179;-83
2021/04/22 07:13:55;;;;;;;19.27;4.20;;;7.60;64.90;;;;;;5056217;28;20652;-84
2021/04/22 07:16:21;;;;;;;25.07;4.80;;;7.60;64.40;;;;;;5056013;28;20214;-84
2021/04/22 07:18:47;;;;;;;23.50;4.50;;;7.60;64.50;;;;;;5054906;28;20176;-84
2021/04/22 07:21:13;;;;;;;22.00;4.77;;;7.60;64.00;;;;;;5056073;28;20200;-84
2021/04/22 07:23:38;;;;;;;26.83;5.43;;;7.70;64.30;;;;;;5056430;28;20179;-85
2021/04/22 07:26:04;;;;;;;21.47;4.43;;;7.70;64.10;;;;;;5056094;28;20180;-84
2021/04/22 07:28:30;;;;;;;15.43;4.67;;;7.60;63.50;;;;;;5056024;28;20595;-84
2021/04/22 07:30:56;;;;;;;19.00;3.97;;;7.70;63.50;;;;;;5056004;28;20198;-84
2021/04/22 07:33:22;;;;;;;25.20;5.50;;;7.70;63.00;;;;;;5054518;28;20194;-85
2021/04/22 07:35:47;;;;;;;18.57;4.87;;;7.70;63.00;;;;;;5056153;28;20207;-83
2021/04/22 07:38:15;;;;;;;16.60;4.10;;;7.70;63.60;;;;;;5056190;28;20171;-83
2021/04/22 07:40:42;;;;;;;21.57;5.00;;;7.80;63.10;;;;;;5055649;28;20216;-82
2021/04/22 07:43:10;;;;;;;20.33;4.33;;;7.80;63.40;;;;;;5055690;28;20683;-83
2021/04/22 07:45:39;;;;;;;42.10;6.97;;;8.00;63.10;;;;;;5054401;28;20180;-83
2021/04/22 07:48:06;;;;;;;20.40;4.60;;;8.00;62.10;;;;;;5055996;28;20171;-82
2021/04/22 07:50:33;;;;;;;22.03;4.63;;;8.00;61.80;;;;;;5055411;28;20282;-82
2021/04/22 07:52:58;;;;;;;21.17;5.77;;;8.00;61.80;;;;;;5055577;28;20180;-81
2021/04/22 07:55:32;;;;;;;19.20;4.50;;;8.00;62.40;;;;;;5055714;28;20650;-82
2021/04/22 07:57:59;;;;;;;23.63;5.00;;;7.90;62.10;;;;;;5055616;28;20522;-82
2021/04/22 08:00:26;;;;;;;21.30;5.47;;;8.00;62.40;;;;;;5053939;28;20696;-83
2021/04/22 08:02:54;;;;;;;18.60;4.80;;;7.90;62.80;;;;;;5055572;28;20203;-83
2021/04/22 08:05:22;;;;;;;21.93;5.53;;;8.00;61.80;;;;;;5053852;28;20274;-82
2021/04/22 08:07:48;;;;;;;18.37;6.00;;;8.00;61.80;;;;;;5053841;28;20298;-82
2021/04/22 08:10:20;;;;;;;17.70;5.30;;;8.20;62.00;;;;;;5055162;28;20680;-82
2021/04/22 08:12:47;;;;;;;26.43;5.73;;;8.20;60.70;;;;;;5055265;28;20160;-82
2021/04/22 08:15:13;;;;;;;22.53;5.50;;;8.20;60.80;;;;;;5054788;28;20716;-82
2021/04/22 08:17:40;;;;;;;20.20;5.13;;;8.30;61.40;;;;;;5055294;28;20182;-82
2021/04/22 08:20:16;;;;;;;25.70;6.00;;;8.20;61.00;;;;;;5054763;28;20192;-82
2021/04/22 08:22:42;;;;;;;23.67;6.63;;;8.20;61.90;;;;;;5055156;28;20163;-82
2021/04/22 08:25:11;;;;;;;35.17;5.60;;;8.30;62.30;;;;;;5053513;28;20180;-82
2021/04/22 08:27:37;;;;;;;21.50;6.07;;;8.40;62.40;;;;;;5054764;28;20290;-82
2021/04/22 08:30:07;;;;;;;22.73;5.77;;;8.40;62.80;;;;;;5054652;28;20198;-82
2021/04/22 08:32:33;;;;;;;17.43;4.33;;;8.60;62.00;;;;;;5054551;28;20172;-82
2021/04/22 08:34:59;;;;;;;22.80;5.93;;;8.60;61.10;;;;;;5054758;28;20183;-82
2021/04/22 08:37:25;;;;;;;27.70;6.37;;;8.70;61.20;;;;;;5054557;28;20172;-82
2021/04/22 08:39:50;;;;;;;22.53;5.23;;;9.00;61.80;;;;;;5054514;28;20237;-82
2021/04/22 08:42:17;;;;;;;20.30;5.40;;;9.30;61.20;;;;;;5054453;28;20176;-82
2021/04/22 08:44:44;;;;;;;16.67;6.07;;;9.50;61.20;;;;;;5054515;28;20573;-82
2021/04/22 08:47:10;;;;;;;24.03;5.10;;;9.70;60.90;;;;;;5054626;28;20583;-82
2021/04/22 08:49:36;;;;;;;18.00;4.43;;;9.70;57.80;;;;;;5052929;28;20199;-82
2021/04/22 08:52:03;;;;;;;23.47;5.47;;;9.40;58.00;;;;;;5054223;28;20181;-82
2021/04/22 08:54:29;;;;;;;18.93;5.00;;;9.40;58.40;;;;;;5054126;28;20642;-82
2021/04/22 08:56:55;;;;;;;13.43;4.40;;;9.60;59.00;;;;;;5054061;28;20206;-82
2021/04/22 08:59:21;;;;;;;24.00;4.47;;;9.80;57.30;;;;;;5054393;28;20642;-82
2021/04/22 09:01:47;;;;;;;25.70;5.30;;;9.70;58.40;;;;;;5054288;28;20239;-82
2021/04/22 09:04:13;;;;;;;22.33;4.93;;;9.70;58.60;;;;;;5054023;28;20257;-82
2021/04/22 09:06:40;;;;;;;23.67;5.87;;;9.80;58.40;;;;;;5054499;28;20633;-82
2021/04/22 09:09:08;;;;;;;16.57;5.30;;;9.60;59.00;;;;;;5035834;28;20184;-82
2021/04/22 09:11:45;;;;;;;21.17;6.03;;;9.30;60.10;;;;;;5052597;28;20183;-82
2021/04/22 09:14:13;;;;;;;20.47;5.43;;;9.30;60.70;;;;;;5054172;28;20188;-83
2021/04/22 09:16:39;;;;;;;21.70;5.10;;;9.30;61.50;;;;;;5053957;28;20661;-83
2021/04/22 09:19:21;;;;;;;19.93;4.57;;;9.50;60.00;;;;;;5052433;28;20176;-82
2021/04/22 09:21:56;;;;;;;24.33;6.20;;;9.70;58.60;;;;;;5052460;28;20225;-82
2021/04/22 09:24:25;;;;;;;18.43;5.10;;;9.40;58.00;;;;;;5053543;28;20172;-83
2021/04/22 09:26:54;;;;;;;18.97;5.17;;;9.20;58.60;;;;;;5054104;28;20668;-83
2021/04/22 09:29:46;;;;;;;26.03;5.47;;;9.00;60.00;;;;;;5053618;28;20198;-82
2021/04/22 09:32:22;;;;;;;16.77;5.43;;;8.90;60.80;;;;;;5053544;28;20173;-82
2021/04/22 09:34:51;;;;;;;27.90;5.93;;;9.10;60.40;;;;;;5053501;28;20199;-83
2021/04/22 09:37:21;;;;;;;15.83;4.20;;;9.20;60.40;;;;;;5053321;28;20691;-84
2021/04/22 09:39:49;;;;;;;19.37;5.37;;;9.30;58.50;;;;;;5052067;28;20234;-83
2021/04/22 09:42:18;;;;;;;14.67;5.53;;;9.20;59.60;;;;;;5053305;28;20525;-82
2021/04/22 09:44:48;;;;;;;17.33;5.10;;;9.20;58.50;;;;;;5052023;28;20191;-84
2021/04/22 09:47:22;;;;;;;19.30;4.90;;;9.20;59.80;;;;;;5054062;28;20191;-84
2021/04/22 09:50:00;;;;;;;17.97;5.27;;;9.50;59.30;;;;;;5054214;28;20220;-84
2021/04/22 09:52:31;;;;;;;17.60;4.60;;;9.50;58.10;;;;;;5051940;28;20266;-84
2021/04/22 09:54:57;;;;;;;19.37;6.73;;;9.30;58.90;;;;;;5051890;28;20202;-84
2021/04/22 09:57:24;;;;;;;23.27;6.53;;;9.20;61.00;;;;;;5051874;28;20710;-84
2021/04/22 09:59:50;;;;;;;21.00;5.57;;;9.20;61.40;;;;;;5053100;28;20256;-84
2021/04/22 10:02:16;;;;;;;17.73;5.20;;;9.30;59.40;;;;;;5053110;28;20187;-84
2021/04/22 10:04:47;;;;;;;23.47;5.67;;;9.30;59.70;;;;;;5051703;28;20175;-83
2021/04/22 10:07:28;;;;;;;20.70;5.23;;;9.50;61.40;;;;;;5053073;28;20618;-83
2021/04/22 10:09:59;;;;;;;22.00;5.20;;;9.50;61.30;;;;;;5051643;28;20221;-83
2021/04/22 10:12:33;;;;;;;24.37;5.93;;;9.60;62.30;;;;;;5051655;28;20535;-83
2021/04/22 10:15:20;;;;;;;17.47;6.40;;;9.50;62.30;;;;;;5052963;28;20253;-83
2021/04/22 10:17:52;;;;;;;20.60;6.40;;;9.50;62.00;;;;;;5052826;28;20622;-83
2021/04/22 10:20:19;;;;;;;17.77;5.33;;;9.40;62.10;;;;;;5051397;28;20187;-84
2021/04/22 10:22:46;;;;;;;19.17;6.20;;;9.30;62.60;;;;;;5056945;28;20192;-83
2021/04/22 10:25:15;;;;;;;23.33;5.40;;;9.40;64.10;;;;;;5052705;28;20183;-83
2021/04/22 10:27:41;;;;;;;19.53;4.60;;;9.60;63.60;;;;;;5052536;28;20537;-83
2021/04/22 10:30:20;;;;;;;18.40;5.20;;;9.90;62.50;;;;;;5051336;28;20205;-84
2021/04/22 10:32:47;;;;;;;15.93;3.77;;;10.30;62.40;;;;;;5052722;28;20293;-83
2021/04/22 10:35:22;;;;;;;14.93;4.57;;;10.30;61.40;;;;;;5052705;28;20176;-84
2021/04/22 10:37:51;;;;;;;22.50;4.93;;;9.80;62.00;;;;;;5051315;28;20652;-83
2021/04/22 10:40:19;;;;;;;16.87;5.03;;;9.70;62.80;;;;;;5054878;28;20191;-84
2021/04/22 10:42:45;;;;;;;19.10;5.20;;;9.60;63.00;;;;;;5056882;28;20170;-85
2021/04/22 10:45:17;;;;;;;17.47;4.63;;;9.70;63.80;;;;;;5056550;28;20169;-85
2021/04/22 10:47:42;;;;;;;11.00;4.43;;;10.20;64.00;;;;;;5056959;28;20164;-84
2021/04/22 10:50:11;;;;;;;16.90;4.33;;;10.10;61.40;;;;;;5055188;28;20688;-84
2021/04/22 10:52:44;;;;;;;16.87;4.37;;;9.80;61.60;;;;;;5055140;28;20175;-84
2021/04/22 10:55:18;;;;;;;15.47;4.53;;;9.60;62.80;;;;;;5056494;28;20167;-84
2021/04/22 10:57:45;;;;;;;11.40;4.03;;;9.50;64.30;;;;;;5056701;28;20183;-84
2021/04/22 11:00:13;;;;;;;18.23;4.87;;;9.70;64.20;;;;;;5056193;28;20211;-85
2021/04/22 11:02:47;;;;;;;20.77;5.83;;;10.00;63.30;;;;;;5054964;28;20710;-85
2021/04/22 11:05:27;;;;;;;16.70;4.70;;;10.50;61.50;;;;;;5056350;28;20170;-85
2021/04/22 11:08:03;;;;;;;14.73;5.03;;;10.70;60.90;;;;;;5054810;28;20310;-86
2021/04/22 11:10:37;;;;;;;20.80;4.50;;;10.70;61.30;;;;;;5054968;28;20187;-85
2021/04/22 11:13:12;;;;;;;13.07;4.30;;;10.50;59.70;;;;;;5056118;28;20520;-86
2021/04/22 11:15:38;;;;;;;16.03;3.53;;;10.40;60.50;;;;;;5054635;28;20565;-86
2021/04/22 11:18:12;;;;;;;24.10;5.80;;;9.70;62.10;;;;;;5056190;28;20693;-85
2021/04/22 11:20:41;;;;;;;13.00;5.47;;;9.70;64.40;;;;;;5054718;28;20663;-86
2021/04/22 11:23:22;;;;;;;22.33;5.57;;;9.60;64.40;;;;;;5056220;28;20210;-86
2021/04/22 11:25:55;;;;;;;23.60;4.67;;;10.10;64.80;;;;;;5056417;28;20641;-86
2021/04/22 11:28:34;;;;;;;11.10;4.53;;;10.40;62.00;;;;;;5056146;28;20168;-86
2021/04/22 11:31:11;;;;;;;21.67;5.37;;;10.50;61.20;;;;;;5055828;28;20203;-86
2021/04/22 11:33:37;;;;;;;17.63;4.43;;;10.40;60.40;;;;;;5054628;28;20180;-86
2021/04/22 11:36:11;;;;;;;18.07;5.27;;;10.30;61.20;;;;;;5055940;28;20676;-86
2021/04/22 11:38:49;;;;;;;13.33;4.63;;;10.30;60.60;;;;;;5054582;28;20183;-86
2021/04/22 11:41:14;;;;;;;12.97;4.97;;;10.10;60.20;;;;;;5055691;28;20203;-86
2021/04/22 11:43:40;;;;;;;17.33;4.63;;;10.00;60.70;;;;;;5054434;28;20175;-86
2021/04/22 11:46:06;;;;;;;20.27;5.03;;;9.70;62.30;;;;;;5055637;28;20209;-86
2021/04/22 11:48:43;;;;;;;13.87;4.30;;;9.80;61.80;;;;;;5054186;28;20273;-86
2021/04/22 11:51:10;;;;;;;14.13;5.07;;;9.80;61.80;;;;;;5054046;28;20197;-85
2021/04/22 11:53:37;;;;;;;23.17;5.53;;;9.90;61.60;;;;;;5055487;28;20217;-86
2021/04/22 11:56:04;;;;;;;15.87;5.23;;;9.90;61.50;;;;;;5055511;28;20261;-86
2021/04/22 11:58:30;;;;;;;16.07;4.57;;;10.20;60.70;;;;;;5054083;28;20176;-86
2021/04/22 12:01:02;;;;;;;12.47;4.73;;;10.30;59.30;;;;;;5055805;28;20595;-86
2021/04/22 12:03:37;;;;;;;9.90;4.23;;;10.20;59.60;;;;;;5054008;28;20569;-86
2021/04/22 12:06:13;;;;;;;22.40;5.07;;;10.10;59.20;;;;;;5054065;28;20199;-85
2021/04/22 12:08:42;;;;;;;17.23;4.13;;;10.00;59.60;;;;;;5055533;28;20530;-86
2021/04/22 12:11:13;;;;;;;17.13;4.27;;;10.10;59.60;;;;;;5055072;28;20188;-86
2021/04/22 12:13:38;;;;;;;16.20;5.00;;;10.30;58.40;;;;;;5053953;28;20178;-86
2021/04/22 12:16:06;;;;;;;22.17;6.20;;;9.90;60.20;;;;;;5055141;28;20275;-86
2021/04/22 12:18:40;;;;;;;19.63;5.53;;;10.10;61.00;;;;;;5053656;28;20170;-86
2021/04/22 12:21:15;;;;;;;17.77;4.37;;;10.30;60.30;;;;;;5053489;28;20283;-86
2021/04/22 12:23:52;;;;;;;18.43;5.23;;;10.20;59.60;;;;;;5053664;28;20242;-86
2021/04/22 12:26:29;;;;;;;17.73;5.43;;;10.20;60.00;;;;;;5053603;28;20171;-86
2021/04/22 12:28:56;;;;;;;15.50;4.73;;;10.30;60.90;;;;;;5053510;28;20225;-86
2021/04/22 12:31:33;;;;;;;14.60;4.37;;;10.40;60.40;;;;;;5054748;28;20541;-86
2021/04/22 12:34:13;;;;;;;14.47;4.90;;;10.10;59.60;;;;;;5053940;28;20168;-86
2021/04/22 12:36:58;;;;;;;17.57;5.83;;;10.40;62.00;;;;;;5053340;28;20195;-86
2021/04/22 12:39:30;;;;;;;15.67;5.20;;;10.30;59.90;;;;;;5054749;28;20187;-86
2021/04/22 12:42:17;;;;;;;11.23;4.33;;;10.60;60.20;;;;;;5054459;28;20525;-86
2021/04/22 12:45:13;;;;;;;12.60;5.03;;;10.30;57.70;;;;;;5054693;28;20164;-85
2021/04/22 12:47:50;;;;;;;14.63;4.33;;;10.50;60.30;;;;;;5054689;28;20144;-86
2021/04/22 12:50:33;;;;;;;14.83;4.30;;;11.20;57.90;;;;;;5053019;28;20572;-86